Time;durP1;ratioP1;P1;durP2;ratioP2;P2;SDS_P1;SDS_P2;PMS_P1;PMS_P2;Temp;Humidity;BMP_temperature;BMP_pressure;BME280_temperature;BME280_humidity;BME280_pressure;Samples;Min_cycle;Max_cycle;Signal;HPM_P1;HPM_P2
2023/04/01 00:01:00;;;;;;;0.10;0.10;;;7.50;99.90;;;;;;5014523;28;20029;-76
2023/04/01 00:03:29;;;;;;;0.10;0.10;;;7.50;99.90;;;;;;5011938;28;20029;-77
2023/04/01 00:05:57;;;;;;;0.10;0.10;;;7.50;99.90;;;;;;5013533;28;20022;-77
2023/04/01 00:08:26;;;;;;;0.15;0.15;;;7.40;99.90;;;;;;5013072;28;20033;-77
2023/04/01 00:10:52;;;;;;;0.10;0.10;;;7.40;99.90;;;;;;5029354;28;20483;-76
2023/04/01 00:13:18;;;;;;;0.10;0.10;;;7.40;99.90;;;;;;5014199;28;20479;-76
2023/04/01 00:15:44;;;;;;;0.10;0.10;;;7.30;99.90;;;;;;5013837;28;20049;-77
2023/04/01 00:18:10;;;;;;;0.10;0.10;;;7.30;99.90;;;;;;5029079;28;20022;-76
2023/04/01 00:20:42;;;;;;;0.10;0.10;;;7.20;99.90;;;;;;5012963;28;20037;-77
2023/04/01 00:23:07;;;;;;;0.15;0.15;;;7.10;99.90;;;;;;5013839;28;20052;-76
2023/04/01 00:25:33;;;;;;;0.10;0.10;;;7.10;99.90;;;;;;5080603;23;20049;-76
2023/04/01 00:27:59;;;;;;;0.20;0.20;;;7.10;99.90;;;;;;5033637;28;20018;-76
2023/04/01 00:30:35;;;;;;;0.10;0.10;;;7.10;99.90;;;;;;5032482;28;20485;-76
2023/04/01 00:33:01;;;;;;;0.10;0.10;;;7.20;99.90;;;;;;5032337;28;20486;-77
2023/04/01 00:35:29;;;;;;;0.10;0.10;;;7.00;99.90;;;;;;5033457;28;20052;-76
2023/04/01 00:37:55;;;;;;;0.20;0.20;;;6.90;99.90;;;;;;5033425;28;20032;-76
2023/04/01 00:40:30;;;;;;;0.20;0.20;;;6.90;99.90;;;;;;5033397;28;20033;-76
2023/04/01 00:42:56;;;;;;;0.20;0.20;;;6.80;99.90;;;;;;5013660;28;20487;-77
2023/04/01 00:45:29;;;;;;;0.10;0.10;;;6.80;99.90;;;;;;5028792;28;20030;-76
2023/04/01 00:47:55;;;;;;;;;;;6.80;99.90;;;;;;5013621;28;20093;-76
2023/04/01 00:50:23;;;;;;;0.20;0.20;;;6.80;99.90;;;;;;5013290;28;19937;-77
2023/04/01 00:52:50;;;;;;;0.20;0.20;;;6.80;99.90;;;;;;5015622;28;20018;-76
2023/04/01 00:55:19;;;;;;;0.10;0.10;;;6.80;99.90;;;;;;5033002;28;20025;-76
2023/04/01 00:57:45;;;;;;;0.17;0.17;;;6.80;99.90;;;;;;5031966;28;20021;-76
2023/04/01 01:00:14;;;;;;;0.10;0.10;;;6.80;99.90;;;;;;5031678;28;20040;-76
2023/04/01 01:02:43;;;;;;;0.20;0.20;;;6.70;99.90;;;;;;5032844;28;20099;-77
2023/04/01 01:05:13;;;;;;;0.10;0.10;;;6.70;99.90;;;;;;5032692;28;20060;-77
2023/04/01 01:08:01;;;;;;;0.20;0.20;;;6.60;99.90;;;;;;5032618;28;20116;-76
2023/04/01 01:10:32;;;;;;;0.15;0.15;;;6.60;99.90;;;;;;5032372;28;20064;-77
2023/04/01 01:13:11;;;;;;;0.20;0.20;;;6.60;99.90;;;;;;5032321;28;20068;-76
2023/04/01 01:15:46;;;;;;;0.10;0.10;;;6.60;99.90;;;;;;5063542;23;20049;-77
2023/04/01 01:18:47;;;;;;;0.15;0.15;;;6.50;99.90;;;;;;5015390;28;20068;-76
2023/04/01 01:21:56;;;;;;;0.10;0.10;;;6.50;99.90;;;;;;5033229;28;20444;-76
2023/04/01 01:24:30;;;;;;;0.20;0.20;;;6.40;99.90;;;;;;5032191;28;20036;-77
2023/04/01 01:27:02;;;;;;;0.20;0.20;;;6.40;99.90;;;;;;5033110;28;20025;-76
2023/04/01 01:29:52;;;;;;;0.20;0.20;;;6.40;99.90;;;;;;5015302;28;20501;-77
2023/04/01 01:32:39;;;;;;;0.20;0.20;;;6.40;99.90;;;;;;5015686;28;20040;-76
2023/04/01 01:35:18;;;;;;;0.20;0.20;;;6.40;99.90;;;;;;5075807;23;20132;-76
2023/04/01 01:37:46;;;;;;;0.20;0.20;;;6.40;99.90;;;;;;5013146;28;20376;-76
2023/04/01 01:40:14;;;;;;;0.10;0.10;;;6.30;99.90;;;;;;5013064;28;20025;-76
2023/04/01 01:42:46;;;;;;;0.20;0.20;;;6.30;99.90;;;;;;5028281;28;20080;-77
2023/04/01 01:45:14;;;;;;;0.20;0.20;;;6.20;99.90;;;;;;5012728;28;20378;-77
2023/04/01 01:47:42;;;;;;;0.15;0.15;;;6.20;99.90;;;;;;5012892;28;20022;-76
2023/04/01 01:50:09;;;;;;;0.15;0.15;;;6.20;99.90;;;;;;5012702;28;20026;-76
2023/04/01 01:52:37;;;;;;;0.20;0.20;;;6.10;99.90;;;;;;5011904;28;20090;-76
2023/04/01 01:55:03;;;;;;;0.10;0.10;;;6.10;99.90;;;;;;5013167;28;20104;-76
2023/04/01 01:57:33;;;;;;;0.20;0.20;;;6.10;99.90;;;;;;5013128;28;20022;-76
2023/04/01 02:00:12;;;;;;;0.15;0.15;;;6.10;99.90;;;;;;5013562;28;20105;-76
2023/04/01 02:02:40;;;;;;;0.20;0.20;;;6.10;99.90;;;;;;5013214;28;20025;-76
2023/04/01 02:05:09;;;;;;;0.20;0.20;;;6.00;99.90;;;;;;5012621;28;20022;-76
2023/04/01 02:07:37;;;;;;;0.10;0.10;;;6.00;99.90;;;;;;5011805;28;20022;-76
2023/04/01 02:10:03;;;;;;;0.10;0.10;;;6.00;99.90;;;;;;5013326;28;20018;-76
2023/04/01 02:12:30;;;;;;;0.17;0.17;;;6.00;99.90;;;;;;5012308;28;20029;-76
2023/04/01 02:15:09;;;;;;;0.10;0.10;;;5.90;99.90;;;;;;5013025;28;20563;-76
2023/04/01 02:17:39;;;;;;;0.20;0.20;;;5.90;99.90;;;;;;5012578;28;20391;-76
2023/04/01 02:20:20;;;;;;;0.10;0.10;;;5.90;99.90;;;;;;5013038;28;20034;-76
2023/04/01 02:22:52;;;;;;;0.10;0.10;;;5.90;99.90;;;;;;5012914;28;20029;-77
2023/04/01 02:25:23;;;;;;;0.13;0.13;;;5.80;99.90;;;;;;5012936;28;20479;-76
2023/04/01 02:27:49;;;;;;;0.20;0.20;;;5.80;99.90;;;;;;5016193;28;20026;-76
2023/04/01 02:30:16;;;;;;;0.20;0.20;;;5.80;99.90;;;;;;5016697;28;20044;-76
2023/04/01 02:32:42;;;;;;;0.20;0.20;;;5.80;99.90;;;;;;5014855;28;20029;-76
2023/04/01 02:35:13;;;;;;;0.20;0.20;;;5.80;99.90;;;;;;5014836;28;20034;-76
2023/04/01 02:37:43;;;;;;;0.20;0.20;;;5.70;99.90;;;;;;5016344;28;20062;-76
2023/04/01 02:40:13;;;;;;;0.13;0.13;;;5.70;99.90;;;;;;5015832;28;20475;-76
2023/04/01 02:42:39;;;;;;;0.20;0.20;;;5.70;99.90;;;;;;5016150;28;20026;-76
2023/04/01 02:45:06;;;;;;;0.10;0.10;;;5.70;99.90;;;;;;5119790;22;20529;-77
2023/04/01 02:47:31;;;;;;;0.10;0.10;;;5.70;99.90;;;;;;5035869;28;20190;-76
2023/04/01 02:50:00;;;;;;;0.20;0.20;;;5.60;99.90;;;;;;5035713;28;20478;-76
2023/04/01 02:52:26;;;;;;;0.20;0.20;;;5.60;99.90;;;;;;5034531;28;20040;-76
2023/04/01 02:54:52;;;;;;;0.15;0.15;;;5.60;99.90;;;;;;5035126;28;20108;-77
2023/04/01 02:57:17;;;;;;;0.20;0.20;;;5.50;99.90;;;;;;5034560;28;20072;-76
2023/04/01 02:59:43;;;;;;;0.10;0.10;;;5.50;99.90;;;;;;5034327;28;20033;-77
2023/04/01 03:02:08;;;;;;;0.20;0.20;;;5.50;99.90;;;;;;5035611;28;20483;-76
2023/04/01 03:04:34;;;;;;;0.10;0.10;;;5.50;99.90;;;;;;5034938;28;20446;-76
2023/04/01 03:07:02;;;;;;;0.10;0.10;;;5.40;99.90;;;;;;5034253;28;20395;-76
2023/04/01 03:09:28;;;;;;;0.20;0.20;;;5.40;99.90;;;;;;5035570;28;20080;-77
2023/04/01 03:11:54;;;;;;;0.10;0.10;;;5.40;99.90;;;;;;5035208;28;20029;-76
2023/04/01 03:14:20;;;;;;;0.10;0.10;;;5.40;99.90;;;;;;5035277;28;20025;-76
2023/04/01 03:16:45;;;;;;;0.20;0.20;;;5.40;99.90;;;;;;5033064;28;20037;-76
2023/04/01 03:19:11;;;;;;;0.10;0.10;;;5.40;99.90;;;;;;5016388;28;20460;-76
2023/04/01 03:21:36;;;;;;;0.10;0.10;;;5.40;99.90;;;;;;5026881;28;20506;-76
2023/04/01 03:24:02;;;;;;;0.10;0.10;;;5.40;99.90;;;;;;5034639;28;20399;-76
2023/04/01 03:26:28;;;;;;;0.20;0.20;;;5.40;99.90;;;;;;5034756;28;20399;-76
2023/04/01 03:28:56;;;;;;;0.20;0.20;;;5.30;99.90;;;;;;5034972;28;20026;-76
2023/04/01 03:31:24;;;;;;;0.10;0.10;;;5.30;99.90;;;;;;5034766;28;20044;-76
2023/04/01 03:33:50;;;;;;;0.20;0.20;;;5.30;99.90;;;;;;5034151;28;20107;-77
2023/04/01 03:36:15;;;;;;;0.15;0.15;;;5.30;99.90;;;;;;5034936;28;20069;-77
2023/04/01 03:38:42;;;;;;;0.10;0.10;;;5.20;99.90;;;;;;5034762;28;20032;-76
2023/04/01 03:41:12;;;;;;;0.10;0.10;;;5.20;99.90;;;;;;5034705;28;20059;-77
2023/04/01 03:43:37;;;;;;;0.13;0.13;;;5.20;99.90;;;;;;5034518;28;20036;-76
2023/04/01 03:46:03;;;;;;;0.20;0.20;;;5.10;99.90;;;;;;5032795;28;20037;-76
2023/04/01 03:48:29;;;;;;;0.20;0.20;;;5.10;99.90;;;;;;5035266;28;20026;-76
2023/04/01 03:50:55;;;;;;;0.20;0.20;;;5.10;99.90;;;;;;5034373;28;20025;-76
2023/04/01 03:55:47;;;;;;;0.17;0.17;;;5.10;99.90;;;;;;5049379;22;20592;-77
2023/04/01 03:58:13;;;;;;;0.10;0.10;;;5.10;99.90;;;;;;5034664;28;20188;-76
2023/04/01 04:00:38;;;;;;;0.20;0.20;;;5.00;99.90;;;;;;5034769;28;20025;-76
2023/04/01 04:03:13;;;;;;;0.10;0.10;;;5.00;99.90;;;;;;5034211;28;20034;-76
2023/04/01 04:05:49;;;;;;;0.20;0.20;;;5.00;99.90;;;;;;5034536;28;20029;-76
2023/04/01 04:08:16;;;;;;;0.10;0.10;;;5.00;99.90;;;;;;5034123;28;20021;-76
2023/04/01 04:10:41;;;;;;;0.10;0.10;;;5.00;99.90;;;;;;5034229;28;20147;-76
2023/04/01 04:13:07;;;;;;;0.20;0.20;;;5.00;99.90;;;;;;5034313;28;20113;-76
2023/04/01 04:15:32;;;;;;;0.10;0.10;;;4.90;99.90;;;;;;5033762;28;20037;-77
2023/04/01 04:17:58;;;;;;;0.20;0.20;;;4.90;99.90;;;;;;5034058;28;20036;-76
2023/04/01 04:20:24;;;;;;;0.10;0.10;;;4.90;99.90;;;;;;5034660;28;20048;-76
2023/04/01 04:22:49;;;;;;;0.20;0.20;;;4.90;99.90;;;;;;5014532;28;20056;-77
2023/04/01 04:25:15;;;;;;;0.15;0.15;;;4.90;99.90;;;;;;5013040;28;20511;-76
2023/04/01 04:27:41;;;;;;;0.20;0.20;;;4.90;99.90;;;;;;5029355;28;20032;-76
2023/04/01 04:30:07;;;;;;;0.20;0.20;;;4.90;99.90;;;;;;5033410;28;20088;-77
2023/04/01 04:32:33;;;;;;;0.10;0.10;;;4.80;99.90;;;;;;5033750;28;20075;-77
2023/04/01 04:34:58;;;;;;;0.10;0.10;;;4.80;99.90;;;;;;5034244;28;20467;-77
2023/04/01 04:37:25;;;;;;;0.10;0.10;;;4.80;99.90;;;;;;5032779;28;20025;-76
2023/04/01 04:39:51;;;;;;;0.20;0.20;;;4.80;99.90;;;;;;5032087;28;20419;-76
2023/04/01 04:42:20;;;;;;;0.15;0.15;;;4.80;99.90;;;;;;5032170;28;20037;-76
2023/04/01 04:44:45;;;;;;;0.10;0.10;;;4.80;99.90;;;;;;5058025;23;20060;-77
2023/04/01 04:47:11;;;;;;;0.10;0.10;;;4.80;99.90;;;;;;5032876;28;20030;-77
2023/04/01 04:49:36;;;;;;;0.20;0.20;;;4.70;99.90;;;;;;5033159;28;20128;-76
2023/04/01 04:52:05;;;;;;;0.17;0.17;;;4.80;99.90;;;;;;5033209;28;20506;-76
2023/04/01 04:54:30;;;;;;;0.20;0.20;;;4.70;99.90;;;;;;5033508;28;20100;-76
2023/04/01 04:56:56;;;;;;;0.10;0.10;;;4.70;99.90;;;;;;5033456;28;20057;-77
2023/04/01 04:59:21;;;;;;;0.10;0.10;;;4.70;99.90;;;;;;5032938;28;20059;-77
2023/04/01 05:01:47;;;;;;;0.20;0.20;;;4.70;99.90;;;;;;5033817;28;20097;-76
2023/04/01 05:04:12;;;;;;;0.20;0.20;;;4.60;99.90;;;;;;5123560;23;20476;-77
2023/04/01 05:06:38;;;;;;;0.20;0.20;;;4.60;99.90;;;;;;5033263;28;20025;-77
2023/04/01 05:09:04;;;;;;;0.20;0.20;;;4.60;99.90;;;;;;5033505;28;20026;-77
2023/04/01 05:11:29;;;;;;;0.20;0.20;;;4.60;99.90;;;;;;5033396;28;20018;-77
2023/04/01 05:13:58;;;;;;;0.20;0.20;;;4.70;99.90;;;;;;5016834;28;20041;-77
2023/04/01 05:16:23;;;;;;;0.10;0.10;;;4.60;99.90;;;;;;4995902;28;20068;-76
2023/04/01 05:18:49;;;;;;;0.10;0.10;;;4.60;99.90;;;;;;5013502;28;20062;-77
2023/04/01 05:21:15;;;;;;;0.10;0.10;;;4.60;99.90;;;;;;5022449;28;20036;-77
2023/04/01 05:23:41;;;;;;;0.20;0.20;;;4.60;99.90;;;;;;5039643;23;20026;-76
2023/04/01 05:26:33;;;;;;;0.10;0.10;;;4.60;99.90;;;;;;5033220;28;20087;-77
2023/04/01 05:28:59;;;;;;;0.10;0.10;;;4.60;99.90;;;;;;5031076;28;20041;-76
2023/04/01 05:31:25;;;;;;;0.20;0.20;;;4.50;99.90;;;;;;5032864;28;20116;-76
2023/04/01 05:33:51;;;;;;;0.20;0.20;;;4.60;99.90;;;;;;5030983;28;20032;-77
2023/04/01 05:36:16;;;;;;;0.20;0.20;;;4.70;99.90;;;;;;5031987;28;20471;-77
2023/04/01 05:38:43;;;;;;;0.20;0.20;;;4.60;99.90;;;;;;5031959;28;20036;-76
2023/04/01 05:41:09;;;;;;;0.20;0.20;;;4.60;99.90;;;;;;5032769;28;20560;-76
2023/04/01 05:43:39;;;;;;;0.20;0.20;;;4.60;99.90;;;;;;5032757;28;20061;-76
2023/04/01 05:46:05;;;;;;;0.20;0.20;;;4.50;99.90;;;;;;5031531;28;20041;-77
2023/04/01 05:48:30;;;;;;;0.20;0.20;;;4.50;99.90;;;;;;5032478;28;20479;-76
2023/04/01 05:50:56;;;;;;;0.20;0.20;;;4.50;99.90;;;;;;5032373;28;20037;-77
2023/04/01 05:53:22;;;;;;;0.20;0.20;;;4.50;99.90;;;;;;5030621;28;20032;-76
2023/04/01 05:55:50;;;;;;;0.20;0.20;;;4.60;99.90;;;;;;5057186;23;20041;-77
2023/04/01 05:58:15;;;;;;;0.20;0.20;;;4.50;99.90;;;;;;5032707;28;20502;-76
2023/04/01 06:00:41;;;;;;;0.20;0.20;;;4.50;99.90;;;;;;5032775;28;20029;-76
2023/04/01 06:03:06;;;;;;;0.20;0.20;;;4.50;99.90;;;;;;5035883;28;20060;-76
2023/04/01 06:05:42;;;;;;;0.20;0.20;;;4.60;99.90;;;;;;5036161;28;20432;-76
2023/04/01 06:08:18;;;;;;;0.10;0.10;;;4.60;99.90;;;;;;5034934;28;20017;-76
2023/04/01 06:10:44;;;;;;;0.10;0.10;;;4.60;99.90;;;;;;5036320;28;20048;-76
2023/04/01 06:13:45;;;;;;;0.10;0.10;;;4.60;99.90;;;;;;5035843;28;20026;-76
2023/04/01 06:16:34;;;;;;;0.20;0.20;;;4.60;99.90;;;;;;5035038;28;20380;-77
2023/04/01 06:19:15;;;;;;;0.10;0.10;;;4.60;99.90;;;;;;5035990;28;20083;-76
2023/04/01 06:22:20;;;;;;;0.10;0.10;;;4.70;99.90;;;;;;5034102;28;20376;-76
2023/04/01 06:24:52;;;;;;;0.10;0.10;;;4.70;99.90;;;;;;5036034;28;20103;-76
2023/04/01 06:27:43;;;;;;;0.20;0.20;;;4.60;99.90;;;;;;5035652;28;20490;-77
2023/04/01 06:30:24;;;;;;;0.20;0.20;;;4.70;99.90;;;;;;5035722;28;20538;-76
2023/04/01 06:33:30;;;;;;;;;;;;;;;;;;;;;
2023/04/01 06:36:20;;;;;;;0.20;0.20;;;4.70;99.90;;;;;;5085605;22;20050;-76
2023/04/01 06:39:21;;;;;;;0.20;0.20;;;4.80;99.90;;;;;;5035724;28;20025;-76
2023/04/01 06:41:59;;;;;;;0.20;0.20;;;4.80;99.90;;;;;;5032718;28;20514;-77
2023/04/01 06:44:48;;;;;;;0.10;0.10;;;4.80;99.90;;;;;;5034533;28;20514;-76
2023/04/01 06:47:36;;;;;;;0.10;0.10;;;4.90;99.90;;;;;;5035448;28;20120;-76
2023/04/01 06:50:23;;;;;;;0.20;0.20;;;4.90;99.90;;;;;;5034560;28;20060;-76
2023/04/01 06:52:55;;;;;;;0.10;0.10;;;4.90;99.90;;;;;;5035332;28;20026;-76
2023/04/01 06:55:42;;;;;;;0.20;0.20;;;4.90;99.90;;;;;;5034979;28;20097;-76
2023/04/01 06:58:22;;;;;;;0.20;0.20;;;4.90;99.90;;;;;;5033607;28;20491;-77
2023/04/01 07:00:54;;;;;;;0.10;0.10;;;4.90;99.90;;;;;;5033919;28;20033;-77
2023/04/01 07:03:41;;;;;;;0.20;0.20;;;5.00;99.90;;;;;;5034716;28;20057;-74
2023/04/01 07:06:15;;;;;;;0.20;0.20;;;5.00;99.90;;;;;;5035349;28;20100;-76
2023/04/01 07:08:43;;;;;;;0.10;0.10;;;4.90;99.90;;;;;;5035555;28;20104;-75
2023/04/01 07:11:14;;;;;;;0.10;0.10;;;5.00;99.90;;;;;;5035108;28;20093;-75
2023/04/01 07:13:41;;;;;;;0.10;0.10;;;5.00;99.90;;;;;;5033319;28;20037;-75
2023/04/01 07:16:23;;;;;;;0.10;0.10;;;5.00;99.90;;;;;;5036329;28;20037;-75
2023/04/01 07:18:54;;;;;;;0.10;0.10;;;5.00;99.90;;;;;;5034817;28;20051;-75
2023/04/01 07:21:28;;;;;;;0.10;0.10;;;5.00;99.90;;;;;;5033876;28;20493;-76
2023/04/01 07:24:00;;;;;;;0.10;0.10;;;5.10;99.90;;;;;;5034153;28;20075;-75
2023/04/01 07:26:26;;;;;;;0.20;0.20;;;5.00;99.90;;;;;;5035158;28;20274;-76
2023/04/01 07:28:53;;;;;;;0.20;0.20;;;5.00;99.90;;;;;;5033554;28;20030;-76
2023/04/01 07:31:28;;;;;;;0.15;0.15;;;5.00;99.90;;;;;;5034680;28;20109;-76
2023/04/01 07:34:21;;;;;;;0.20;0.20;;;5.00;99.90;;;;;;5034325;28;20021;-76
2023/04/01 07:37:15;;;;;;;0.15;0.15;;;5.00;99.90;;;;;;5027189;28;20041;-76
2023/04/01 07:39:48;;;;;;;;;;;5.10;99.90;;;;;;5028478;28;20041;-77
2023/04/01 07:42:35;;;;;;;0.20;0.20;;;5.10;99.90;;;;;;5037440;28;19948;-78
2023/04/01 07:45:30;;;;;;;0.10;0.10;;;5.10;99.90;;;;;;5033041;28;20032;-76
2023/04/01 07:48:10;;;;;;;0.15;0.15;;;5.10;99.90;;;;;;5034386;28;20101;-76
2023/04/01 07:51:01;;;;;;;0.10;0.10;;;5.10;99.90;;;;;;5034618;28;20025;-77
2023/04/01 07:53:32;;;;;;;0.17;0.17;;;5.10;99.90;;;;;;5033897;28;20033;-77
2023/04/01 07:56:20;;;;;;;0.20;0.20;;;5.20;99.90;;;;;;5034413;28;20372;-78
2023/04/01 07:59:23;;;;;;;0.15;0.15;;;5.20;99.90;;;;;;5034625;28;20437;-77
2023/04/01 08:02:09;;;;;;;0.20;0.20;;;5.20;99.90;;;;;;5014820;28;20026;-77
2023/04/01 08:04:56;;;;;;;0.20;0.20;;;5.10;99.90;;;;;;5013135;28;20492;-77
2023/04/01 08:08:09;;;;;;;0.20;0.20;;;5.10;99.90;;;;;;5014547;28;20494;-77
2023/04/01 08:10:50;;;;;;;0.20;0.20;;;5.20;99.90;;;;;;4954130;29;20062;-75
2023/04/01 08:16:25;;;;;;;0.20;0.20;;;5.20;99.90;;;;;;5049747;23;20049;-77
2023/04/01 08:19:06;;;;;;;0.20;0.20;;;5.20;99.90;;;;;;5033334;28;20021;-77
2023/04/01 08:21:37;;;;;;;0.20;0.20;;;5.10;99.90;;;;;;5034080;28;20088;-77
2023/04/01 08:24:17;;;;;;;0.10;0.10;;;5.10;99.90;;;;;;5031568;28;20073;-77
2023/04/01 08:26:49;;;;;;;0.20;0.20;;;5.10;99.90;;;;;;5033452;28;20033;-77
2023/04/01 08:29:59;;;;;;;0.20;0.20;;;5.00;99.90;;;;;;5033779;28;20047;-77
2023/04/01 08:32:38;;;;;;;0.10;0.10;;;4.90;99.90;;;;;;5000613;28;20038;-76
2023/04/01 08:35:24;;;;;;;0.20;0.20;;;4.90;99.90;;;;;;5050626;23;20111;-77
2023/04/01 08:37:51;;;;;;;0.10;0.10;;;4.80;99.90;;;;;;5014172;28;20018;-77
2023/04/01 08:40:29;;;;;;;0.10;0.10;;;5.00;99.90;;;;;;5026765;28;20060;-76
2023/04/01 08:43:11;;;;;;;0.15;0.15;;;4.90;99.90;;;;;;5031394;28;20076;-76
2023/04/01 08:45:48;;;;;;;0.10;0.10;;;4.90;99.90;;;;;;5033057;28;20025;-75
2023/04/01 08:48:32;;;;;;;0.13;0.13;;;4.90;99.90;;;;;;5033493;28;20101;-75
2023/04/01 08:51:04;;;;;;;0.20;0.20;;;4.90;99.90;;;;;;5033188;28;20056;-76
2023/04/01 08:56:28;;;;;;;0.20;0.20;;;4.90;99.90;;;;;;5052807;22;20075;-75
2023/04/01 08:59:34;;;;;;;0.10;0.10;;;4.80;99.90;;;;;;5053239;28;20071;-76
2023/04/01 09:02:26;;;;;;;0.20;0.20;;;4.90;99.90;;;;;;5053011;28;20027;-75
2023/04/01 09:04:55;;;;;;;0.20;0.20;;;4.90;99.90;;;;;;5034802;28;20021;-76
2023/04/01 09:07:51;;;;;;;0.10;0.10;;;4.90;99.90;;;;;;5053309;28;20031;-76
2023/04/01 09:10:25;;;;;;;0.10;0.10;;;4.80;99.90;;;;;;5052856;28;20100;-75
2023/04/01 09:12:59;;;;;;;0.20;0.20;;;4.80;99.90;;;;;;5052601;28;20029;-76
2023/04/01 09:15:49;;;;;;;0.20;0.20;;;4.80;99.90;;;;;;5052723;28;20558;-76
2023/04/01 09:18:24;;;;;;;0.20;0.20;;;4.90;99.90;;;;;;5053186;28;20548;-76
2023/04/01 09:21:12;;;;;;;0.20;0.20;;;4.90;99.90;;;;;;5034879;28;20442;-76
2023/04/01 09:24:10;;;;;;;0.10;0.10;;;4.90;99.90;;;;;;5068213;23;20025;-75
2023/04/01 09:27:00;;;;;;;0.20;0.20;;;4.90;99.90;;;;;;5052241;28;20075;-75
2023/04/01 09:29:34;;;;;;;0.20;0.20;;;4.90;99.90;;;;;;5052148;28;20474;-76
2023/04/01 09:32:10;;;;;;;;;;;4.80;99.90;;;;;;5035511;28;20390;-76
2023/04/01 09:34:54;;;;;;;0.20;0.20;;;4.80;99.90;;;;;;5052751;28;19905;-76
2023/04/01 09:37:36;;;;;;;0.20;0.20;;;4.80;99.90;;;;;;5056921;28;20398;-75
2023/04/01 09:40:04;;;;;;;0.10;0.10;;;4.80;99.90;;;;;;5038492;28;20029;-75
2023/04/01 09:42:42;;;;;;;0.20;0.20;;;4.80;99.90;;;;;;5056466;28;20031;-74
2023/04/01 09:45:14;;;;;;;0.10;0.10;;;4.80;99.90;;;;;;5056365;28;20378;-74
2023/04/01 09:47:54;;;;;;;0.13;0.13;;;4.80;99.90;;;;;;5056928;28;20397;-74
2023/04/01 09:51:05;;;;;;;0.13;0.13;;;4.80;99.90;;;;;;5056448;28;20128;-74
2023/04/01 09:54:02;;;;;;;0.10;0.10;;;4.90;99.90;;;;;;5013593;28;20037;-74
2023/04/01 09:56:46;;;;;;;0.10;0.10;;;4.90;99.90;;;;;;5035352;28;20087;-74
2023/04/01 09:59:30;;;;;;;;;;;4.90;99.90;;;;;;5036904;28;20032;-74
2023/04/01 10:02:40;;;;;;;0.20;0.20;;;4.90;99.90;;;;;;5036067;28;19905;-75
2023/04/01 10:05:27;;;;;;;0.10;0.10;;;4.90;99.90;;;;;;5050254;28;20098;-74
2023/04/01 10:08:25;;;;;;;0.13;0.13;;;4.80;99.90;;;;;;5056057;28;20534;-74
2023/04/01 10:11:25;;;;;;;0.15;0.15;;;4.90;99.90;;;;;;5056335;28;20022;-75
2023/04/01 10:14:12;;;;;;;0.10;0.10;;;4.80;99.90;;;;;;5037889;28;20091;-75
2023/04/01 10:16:56;;;;;;;0.13;0.13;;;4.80;99.90;;;;;;5055831;28;20025;-73
2023/04/01 10:19:29;;;;;;;0.20;0.20;;;4.80;99.90;;;;;;5055704;28;20457;-74
2023/04/01 10:22:10;;;;;;;0.20;0.20;;;4.80;99.90;;;;;;5055871;28;20029;-74
2023/04/01 10:25:06;;;;;;;0.20;0.20;;;4.90;99.90;;;;;;5055221;28;20060;-74
2023/04/01 10:28:06;;;;;;;0.20;0.20;;;4.90;99.90;;;;;;5037328;28;20028;-75
2023/04/01 10:31:11;;;;;;;0.20;0.20;;;4.90;99.90;;;;;;5055644;28;20017;-74
2023/04/01 10:34:04;;;;;;;0.10;0.10;;;4.90;99.90;;;;;;5055616;28;20552;-74
2023/04/01 10:36:53;;;;;;;0.20;0.20;;;4.80;99.90;;;;;;5055672;28;20036;-74
2023/04/01 10:39:48;;;;;;;0.10;0.10;;;4.80;99.90;;;;;;5037576;28;20049;-74
2023/04/01 10:42:31;;;;;;;0.20;0.20;;;4.80;99.90;;;;;;5054943;28;20025;-74
2023/04/01 10:45:28;;;;;;;0.20;0.20;;;4.70;99.90;;;;;;5055489;28;20104;-74
2023/04/01 10:48:12;;;;;;;0.25;0.25;;;4.70;99.90;;;;;;5054654;28;20025;-74
2023/04/01 10:51:04;;;;;;;0.10;0.10;;;4.70;99.90;;;;;;5055210;28;20017;-74
2023/04/01 10:54:08;;;;;;;0.20;0.20;;;4.70;99.90;;;;;;5036836;28;20035;-74
2023/04/01 10:56:53;;;;;;;;;;;4.80;99.90;;;;;;5039403;28;20047;-74
2023/04/01 10:59:52;;;;;;;0.20;0.20;;;4.80;99.90;;;;;;5037341;28;19905;-76
2023/04/01 11:02:36;;;;;;;0.20;0.20;;;4.70;99.90;;;;;;5054821;28;20035;-75
2023/04/01 11:05:25;;;;;;;0.10;0.10;;;4.60;99.90;;;;;;5035066;28;20500;-75
2023/04/01 11:08:13;;;;;;;0.10;0.10;;;4.60;99.90;;;;;;5034455;28;20028;-75
2023/04/01 11:11:04;;;;;;;0.10;0.10;;;4.60;99.90;;;;;;5035165;28;20025;-75
2023/04/01 11:13:51;;;;;;;0.20;0.20;;;4.70;99.90;;;;;;5019347;28;20033;-75
2023/04/01 11:16:40;;;;;;;0.10;0.10;;;4.70;99.90;;;;;;5034356;28;20509;-75
2023/04/01 11:19:11;;;;;;;0.15;0.15;;;4.70;99.90;;;;;;5037985;28;20033;-77
2023/04/01 11:21:54;;;;;;;0.20;0.20;;;4.80;99.90;;;;;;5055595;28;20096;-76
2023/04/01 11:24:44;;;;;;;0.20;0.20;;;4.80;99.90;;;;;;5055735;28;20086;-75
2023/04/01 11:27:48;;;;;;;0.13;0.13;;;4.80;99.90;;;;;;5036698;28;20074;-74
2023/04/01 11:30:43;;;;;;;0.20;0.20;;;4.70;99.90;;;;;;5054585;28;20082;-77
2023/04/01 11:33:17;;;;;;;0.20;0.20;;;4.70;99.90;;;;;;5039027;28;20282;-77
2023/04/01 11:36:19;;;;;;;0.20;0.20;;;4.70;99.90;;;;;;5055096;28;20393;-77
2023/04/01 11:38:57;;;;;;;0.20;0.20;;;4.60;99.90;;;;;;5046665;28;20170;-76
2023/04/01 11:41:49;;;;;;;0.20;0.20;;;4.70;99.90;;;;;;5053787;28;20390;-76
2023/04/01 11:44:24;;;;;;;0.20;0.20;;;4.90;99.90;;;;;;5055253;28;20040;-77
2023/04/01 11:47:37;;;;;;;0.20;0.20;;;5.00;99.90;;;;;;5054662;28;20021;-77
2023/04/01 11:50:43;;;;;;;0.30;0.30;;;5.20;99.90;;;;;;5054280;28;20060;-77
2023/04/01 11:53:37;;;;;;;0.10;0.10;;;5.30;99.90;;;;;;5057588;28;20104;-78
2023/04/01 11:56:23;;;;;;;0.17;0.17;;;5.40;99.90;;;;;;5041078;28;20402;-78
2023/04/01 11:59:19;;;;;;;0.30;0.30;;;5.40;99.90;;;;;;5056824;28;20118;-78
2023/04/01 12:02:03;;;;;;;0.20;0.20;;;5.50;99.90;;;;;;5059133;28;20062;-78
2023/04/01 12:04:31;;;;;;;;;;;5.60;99.90;;;;;;5062198;28;20032;-78
2023/04/01 12:07:35;;;;;;;0.10;0.10;;;5.60;99.90;;;;;;5061439;28;19926;-77
2023/04/01 12:10:21;;;;;;;0.20;0.20;;;5.60;99.90;;;;;;4992200;28;20138;-77
2023/04/01 12:13:45;;;;;;;0.15;0.15;;;5.50;99.90;;;;;;4976062;28;20046;-77
2023/04/01 12:16:40;;;;;;;0.20;0.20;;;5.40;99.90;;;;;;4991824;28;20042;-77
2023/04/01 12:19:33;;;;;;;0.20;0.20;;;5.30;99.90;;;;;;4992187;28;20074;-77
2023/04/01 12:22:29;;;;;;;0.20;0.20;;;5.30;99.90;;;;;;5036013;28;20102;-77
2023/04/01 12:25:13;;;;;;;0.20;0.20;;;5.60;99.90;;;;;;5052932;28;20392;-77
2023/04/01 12:27:56;;;;;;;0.20;0.20;;;5.80;99.90;;;;;;5053275;28;20388;-77
2023/04/01 12:30:30;;;;;;;0.20;0.20;;;5.90;99.90;;;;;;5053678;28;20502;-77
2023/04/01 12:33:16;;;;;;;;;;;5.90;99.90;;;;;;5035915;28;20029;-77
2023/04/01 12:35:59;;;;;;;0.20;0.20;;;5.80;99.90;;;;;;5033439;28;19905;-78
2023/04/01 12:38:51;;;;;;;0.20;0.20;;;5.70;99.90;;;;;;5032720;28;20040;-77
2023/04/01 12:41:39;;;;;;;0.20;0.20;;;5.60;99.90;;;;;;5033431;28;20503;-77
2023/04/01 12:44:28;;;;;;;0.20;0.20;;;5.50;99.90;;;;;;5035255;28;20056;-78
2023/04/01 12:47:13;;;;;;;0.20;0.20;;;5.40;99.90;;;;;;5053420;28;20558;-77
2023/04/01 12:49:44;;;;;;;0.20;0.20;;;5.40;99.90;;;;;;5052870;28;20078;-77
2023/04/01 12:52:32;;;;;;;0.20;0.20;;;5.40;99.90;;;;;;5034838;28;20028;-77
2023/04/01 12:55:19;;;;;;;0.20;0.20;;;5.50;99.90;;;;;;5045392;22;20195;-77
2023/04/01 12:58:16;;;;;;;0.20;0.20;;;5.50;99.90;;;;;;5052985;28;20021;-77
2023/04/01 13:01:14;;;;;;;0.20;0.20;;;5.50;99.90;;;;;;5053092;28;20028;-77
2023/04/01 13:04:34;;;;;;;0.10;0.10;;;5.40;99.90;;;;;;5034855;28;20379;-77
2023/04/01 13:07:41;;;;;;;0.17;0.17;;;5.40;99.90;;;;;;4952561;28;20023;-77
2023/04/01 13:10:19;;;;;;;0.15;0.15;;;5.30;99.90;;;;;;5032470;28;20045;-77
2023/04/01 13:13:20;;;;;;;0.20;0.20;;;5.20;99.90;;;;;;5033116;28;20033;-77
2023/04/01 13:16:18;;;;;;;0.20;0.20;;;5.20;99.90;;;;;;5032672;28;20038;-77
2023/04/01 13:19:01;;;;;;;0.17;0.17;;;5.10;99.90;;;;;;5032740;28;20471;-77
2023/04/01 13:21:52;;;;;;;0.20;0.20;;;5.00;99.90;;;;;;5032660;28;20022;-77
2023/04/01 13:24:51;;;;;;;0.17;0.17;;;5.10;99.90;;;;;;5032688;28;20025;-77
2023/04/01 13:27:46;;;;;;;0.20;0.20;;;5.10;99.90;;;;;;5015000;28;20049;-77
2023/04/01 13:30:25;;;;;;;0.20;0.20;;;5.10;99.90;;;;;;5015242;28;20032;-78
2023/04/01 13:33:13;;;;;;;0.22;0.22;;;5.10;99.90;;;;;;5015072;28;20033;-77
2023/04/01 13:35:39;;;;;;;0.20;0.20;;;5.20;99.90;;;;;;5031957;28;20033;-77
2023/04/01 13:38:36;;;;;;;0.20;0.20;;;5.10;99.90;;;;;;5032513;28;20029;-77
2023/04/01 13:41:16;;;;;;;0.10;0.10;;;5.20;99.90;;;;;;5021955;28;20158;-77
2023/04/01 13:43:51;;;;;;;0.20;0.20;;;5.20;99.90;;;;;;5054888;28;20101;-77
2023/04/01 13:46:42;;;;;;;0.15;0.15;;;5.20;99.90;;;;;;5072392;28;20559;-77
2023/04/01 13:49:34;;;;;;;0.20;0.20;;;5.20;99.90;;;;;;5072515;28;20389;-77
2023/04/01 13:52:25;;;;;;;0.15;0.15;;;5.30;99.90;;;;;;5072683;28;20078;-77
2023/04/01 13:55:28;;;;;;;0.10;0.10;;;5.40;99.90;;;;;;5072205;28;20021;-77
2023/04/01 13:58:37;;;;;;;0.20;0.20;;;5.50;99.90;;;;;;5059035;28;20111;-77
2023/04/01 14:01:24;;;;;;;0.25;0.25;;;5.60;99.90;;;;;;5052837;28;20493;-78
2023/04/01 14:04:06;;;;;;;0.30;0.30;;;5.70;99.90;;;;;;5041150;22;20040;-78
2023/04/01 14:07:14;;;;;;;0.20;0.20;;;5.80;99.90;;;;;;5052913;28;20032;-77